SEASEATTLE-TACOMA INTL
METARs for nearby airports:
N 0 432' KSEA 212315Z 04008KT 10SM SCT028 BKN100 16/09 A2978
NE 4 32' KRNT 212253Z VRB04KT 6SM HZ OVC033 16/10 A2978
N 4 21' KBFI 212253Z 07004KT 10SM BKN034 17/09 A2978
SW 15 294' KTIW 212253Z 03010KT 10SM SCT026 SCT032 BKN065 15/08 A2978
W 18 444' KPWT 212321Z VRB05KT 10SM OVC033 16/10 A2978
S 19 322' KTCM 212158Z 01009G15KT 10SM BKN028 BKN100 17/12 A2978
S 20 537' KPLU 212335Z VRB03KT 10SM BKN029 BKN065 OVC095 17/11 A2979
SW 24 301' KGRF 212258Z 34009KT 10SM BKN033 BKN100 16/12 A2977
N 27 607' KPAE 212253Z VRB05KT 10SM OVC030 14/10 A2979
W 36 272' KSHN 212253Z 12003KT 10SM BKN046 OVC080 18/08 A2975
SW 37 207' KOLM 212254Z 35007KT 10SM SCT035 OVC100 18/08 A2977
N 43 141' KAWO 212325Z 31005KT 10SM SCT020 OVC029 16/11 A2979
SW 53 177' KCLS 212335Z 04007KT 10SM FEW049 BKN095 18/09 A2977
N 55 47' KNUW 212256Z 27006KT 10SM SCT022 BKN034 BKN120 16/09 A2983
NW 60 13' KNOW 212330Z 29007KT 10SM SCT120 14/09 A2979
N 61 145' KBVS 212330Z 00000KT 10SM OVC095 18/12 A2978
NW 62 291' KCLM 212253Z 33006KT 10SM CLR 16/08 A2979
NW 70 112' KFHR 212253Z 20008KT 10SM CLR 17/09 A2979
SW 72 17' KHQM 212253Z 28013KT 9SM CLR 17/10 A2978
E 76 1763' KELN 212253Z 31006KT 10SM OVC075 18/04 A2967
N 79 34' KORS 212335Z VRB04KT 10SM CLR 16/10 A2977
N 81 171' KBLI 212253Z 17007KT 10SM SCT023 17/11 A2977
S 83 20' KKLS 212256Z 35007KT 10SM FEW050 SCT075 OVC090 17/08 A2976
NW 84 64' CYYJ 212300Z 14007KT 20SM FEW035 FEW100 BKN240 18/11 A2976
E 85 1248' KEAT 212255Z 36007KT 10SM OVC090 19/01 A2967
SE 89 1098' KYKM 212253Z 16007KT 10SM BKN075 OVC090 17/07 A2967
W 95 193' KUIL 212253Z 32009KT 10SM -RA CLR 18/08 A2979
TAFs for nearby airports:
N 0 432' KSEA TAF KSEA 212320Z 2200/2306 36010KT P6SM BKN025 BKN150
  FM220400 03005KT P6SM SCT030 BKN150
  FM220800 VRB03KT P6SM FEW030 BKN100
  FM221200 15004KT P6SM SCT020 BKN100
  FM221900 30008KT P6SM SCT040 BKN100
N 4 21' KBFI TAF KBFI 212320Z 2200/2224 36008KT P6SM BKN030 BKN150
  FM220400 03005KT P6SM SCT030 BKN150
  FM220800 VRB03KT P6SM FEW030 BKN100
  FM221200 15004KT P6SM SCT025 BKN100
  FM221900 30008KT P6SM SCT040 BKN100
W 18 444' KPWT TAF KPWT 212320Z 2200/2224 07008KT P6SM BKN030 BKN150
  FM220400 03005KT P6SM SCT030 BKN150
  FM220800 VRB03KT P6SM FEW025 BKN100
  FM221200 VRB03KT P6SM SCT018 BKN100
  FM221900 03008KT P6SM SCT040 BKN100
S 19 322' KTCM TAF KTCM 212102Z 2121/2303 01009KT 9999 BKN030 620809 QNH2974INS
  TEMPO 2121/2124 03012G18KT 9000 -SHRA BKN040
  BECMG 2201/2202 VRB06KT 9999 BKN030 QNH2981INS
  TEMPO 2202/2204 BKN015
  BECMG 2218/2219 02009KT 9999 SCT050 QNH2994INS TX17/2121Z TN09/2212Z
SW 24 301' KGRF TAF KGRF 211301Z 2113/2219 VRB06KT 9999 OVC060 610609 QNH2968INS
  BECMG 2119/2120 01012KT 9999 SCT040 BKN080 620809 QNH2970INS
  TEMPO 2120/2124 03012G18KT 9000 -SHRA BKN040
  BECMG 2202/2203 VRB06KT 9999 FEW030 SCT060 BKN100 QNH2978INS TX19/2121Z TN09/2114Z
N 27 607' KPAE TAF KPAE 212320Z 2200/2224 36008KT P6SM BKN030 BKN150
  FM220400 VRB05KT P6SM SCT030 BKN150
  FM220800 18003KT P6SM FEW030 BKN100
  FM221200 22004KT P6SM SCT020 BKN100
  FM221900 33008KT P6SM SCT040 BKN100
SW 37 207' KOLM TAF KOLM 212320Z 2200/2224 35007KT P6SM SCT035 BKN100
  FM220400 VRB03KT P6SM SCT030 BKN100
  FM221200 00000KT P6SM SCT018 BKN100
  FM221900 01005KT P6SM SCT035 BKN100
N 55 47' KNUW TAF KNUW 2123/2223 27008KT 9999 FEW025 SCT050 BKN100 BKN150 640809 QNH2980INS
  FM220300 VRB06KT 9999 FEW025 SCT100 BKN120 BKN200 600000 QNH2984INS
  TEMPO 2209/2215 VRB06KT 9999 MIFG BKN005 BKN015
  FM221800 32006KT 9999 FEW100 FEW250 QNH2990INS T16/2123Z T08/2213Z FS30143
NW 62 291' KCLM TAF KCLM 212320Z 2200/2224 30006KT P6SM BKN150
  FM220600 28005KT P6SM BKN100
  FM221800 28006KT P6SM SCT040 BKN100
SW 72 17' KHQM TAF KHQM 212320Z 2200/2224 28012KT P6SM SCT035 BKN050 BKN100
  FM220400 28009KT P6SM SCT040 BKN100
  FM220800 27005KT P6SM SCT015 BKN100
  FM221900 24012KT P6SM SCT040 BKN100
N 81 171' KBLI TAF KBLI 212320Z 2200/2224 18006KT P6SM SCT025 BKN150
  TEMPO 2200/2204 BKN025
  FM220600 18004KT P6SM FEW020 BKN150
  FM221800 23006KT P6SM SCT040 BKN100
E 85 1248' KEAT TAF KEAT 212337Z 2200/2224 32008KT P6SM OVC090
  FM221200 29006KT P6SM BKN090
SE 89 1098' KYKM TAF KYKM 212337Z 2200/2224 28007KT P6SM BKN070 BKN090
  FM221700 03012G20KT P6SM SCT070 BKN090
  FM222000 34012G17KT P6SM BKN060 OVC080
Area forecast:
000
FAUS46 KKCI 101945
FA6W  
SFOC FA 101945
SYNOPSIS AND VFR CLDS/WX
SYNOPSIS VALID UNTIL 111400
CLDS/WX VALID UNTIL 110800...OTLK VALID 110800-111400
WA OR CA AND CSTL WTRS
.
SEE AIRMET SIERRA FOR IFR CONDS AND MTN OBSCN.
TS IMPLY SEV OR GTR TURB SEV ICE LLWS AND IFR CONDS.
NON MSL HGTS DENOTED BY AGL OR CIG.
.
SYNOPSIS...UPR LVL TROF WAS LOCATED NR 130W. MOIST SWLY FLOW
EXTDS FROM PAC NW EWD INTO NRN ROCKIES. HIGH PRES RIDGE WAS OVR
MUCH OF THE REST OF THE AREA. BY 14Z...UPR LVL TROF WILL EXTD
FROM WA-OR SWD INTO CA.  ..STREIB..
.
WA CASCDS WWD
CSTL SXNS
CSTLN-INLAND...SCT-BKN025 BKN035-050 TOPS 120-140. ISOL -SHRA.
   OTLK...MVFR CIGS SHRA BR.
PUGET SOUND-INTR VLY...SCT-BKN020 BKN-OVC035-050 TOPS 160 BKN CI.
   WDLY SCT -SHRA. OTLK...MVFR CIGS SHRA.
CASCDS...BKN-OVC050-070 TOPS FL180. BKN CI ABV. WDLY SCT -SHRA.
   OTLK...MVFR CIGS SHRA.
.
WA E OF CASCDS
CNTRL WA...SCT140 OVC CI. BECMG 2302 SCT080 BKN120 LYRD FL240.
   OTLK...VFR.
ERN WA...SCT-BKN140-160 LYRD FL240. BECMG 0508 BKN080 OVC120
   LYRD FL240 ISOL -SHRA DVLPG. OTLK...VFR.
.
OR CASCDS WWD
CSTL SXNS
CSTLN-INLAND...SCT-BKN020 BKN-OVC035-050 TOPS FL180. WDLY SCT
   -SHRA. OTLK...MVFR CIGS SHRA.
WILLAMETTE VLY/SWRN INTR...SCT-BKN020 BKN-OVC035-050 TOPS FL180.
   WDLY SCT -SHRA. OTLK...MVFR CIGS SHRA.
CASCDS...SCT-BKN060 BKN-OVC080-100 TOPS FL180 ISOL -SHRA.
   OTLK...MVFR CIGS SHRA.
.
OR E OF CASCDS
CNTRL...SCT100-120 BKN150 LYRD FL240. OTLK...VFR.
ERN...SCT130-150 BKN CI. BECMG 0205 OVC120-140 LYRD FL240.
   OTLK...VFR.
.
NRN CA...STS-SAC-TVL LN NWD
CSTL SXNS...
   FOT NWD...SCT025 BKN CI ABV. BECMG 0205 SCT020 OVC050 TOPS
      160. ISOL -SHRA. OTLK...IFR CIGS.
   S OF FOT...SCT-BKN010 TOPS 030-040. OTLK...IFR CIGS.
REST OF AREA...SKC OCNL SCT CI. OCNL VYS 3-5SM FU HZ.
   OTLK...VFR.
SAC VLY...
   NRN AND CNTRL SXNS...SKC. OTLK...VFR.
   SRN SXNS...SKC. OCNL VIS 3-5SM FU HZ. OTLK...MVFR FU HZ.
SHASTA-SISKIYOUS-NERN CA...
NRN SIERRAS...SKC OCNL SCT CI. WINDS SLY G25KT. OTLK...VFR WIND.
.
CNTRL CA
CSTL SXNS...
   CSTLN...SKC OCNL SCT010. BECMG 0508 OCNL CIGS BKN-SCT010 TOPS
      020-030. OTLK...IFR CIGS.
   INLAND...SKC. OTLK...VFR BECMG 1114 IFR CIGS BR.
SAN JOAQUIN VLY...SKC. OTLK...VFR.
SRN SIERRAS..SKC. OTLK...VFR.
.
SRN CA..VBG-NID-60NNW BIH LN SWD
CSTL SXNS...
   CSTLN...
      EXTRM SRN SXNS...SKC. BECMG 0205 SCT010. BECMG 0508 CIGS
         BKN-OVC010 TOPS 030. OTLK...IFR CIGS.
      REST OF AREA...SKC. OTLK...VFR BECMG 0811 IFR CIGS BR.
   INLAND...SKC OCNL FEW CI. OTLK...VFR.
INTR MTNS-MOJAVE-SRN DESERTS...SKC OCNL FEW CI. OTLK...VFR.
.
CSTL WTRS
WA...SCT-BKN035-050 TOPS 100-120. ISOL -SHRA. OTLK...VFR.
OR...
NWRN HLF...SCT-BKN035-050 TOPS 100-120. ISOL -SHRA. OTLK...VFR.
SERN HLF...SCT-BKN025 BKN035-050 TOPS FL180 BKN CI ABV. WDLY SCT
   -SHRA. OTLK...MVFR CIGS SHRA.
CA...
NRN CA...
   FOT NWD...SCT025 BKN CI ABV. BECMG 0205 SCT020 OVC050 TOPS
      160. ISOL -SHRA. OTLK...IFR CIGS.
   S OF FOT...SCT-BKN010 TOPS 030-040. OTLK...IFR CIGS.
CNTRL CA...SCT-BKN010 TOPS 030-040. OTLK...IFR CIGS.
SRN CA...
   OUTER CSTL WTRS...CIGS BKN010-020 TOPS 030-050.
      OTLK...IFR CIGS.
   ADJ CSTL WTRS...SKC. OCNL AGL SCT010. OTLK...VFR BECMG 0811
      IFR CIGS BR.
.
THE AREA FORECAST WILL TERMINATE AT 2359Z ON 10 OCTOBER 2017. IN
PLACE OF THE AREA FORECAST...PLEASE SEE THE GRAPHICAL FORECAST AT
WWW.AVIATIONWEATHER.GOV/GFA. GRAPHICAL AND TEXT AIRMETS WILL
CONTINUE AS REGULARLY SCHEDULED.
....

Shortcut to this page: http://wxbay.com.

Data may contain errors.